createdAt,value
2018-10-02T00:00:38.984Z,1010.89
2018-10-02T00:01:48.383Z,1010.82
2018-10-02T00:02:58.336Z,1010.8
2018-10-02T00:04:08.271Z,1010.81
2018-10-02T00:05:17.948Z,1010.81
2018-10-02T00:06:27.935Z,1010.81
2018-10-02T00:07:37.886Z,1010.79
2018-10-02T00:08:47.825Z,1010.8
2018-10-02T00:09:57.755Z,1010.8
2018-10-02T00:11:07.684Z,1010.78
2018-10-02T00:12:17.103Z,1010.76
2018-10-02T00:13:27.023Z,1010.81
2018-10-02T00:14:36.949Z,1010.81
2018-10-02T00:15:46.874Z,1010.78
2018-10-02T00:16:56.535Z,1010.76
2018-10-02T00:18:06.467Z,1010.8
2018-10-02T00:19:16.140Z,1010.82
2018-10-02T00:20:26.058Z,1010.88
2018-10-02T00:21:35.982Z,1010.83
2018-10-02T00:22:45.675Z,1010.89
2018-10-02T00:23:55.615Z,1010.88
2018-10-02T00:25:05.274Z,1010.89
2018-10-02T00:26:14.952Z,1010.96
2018-10-02T00:27:24.638Z,1010.9
2018-10-02T00:28:34.546Z,1010.9
2018-10-02T00:29:44.228Z,1010.91
2018-10-02T00:30:53.654Z,1010.82
2018-10-02T00:32:03.698Z,1010.91
2018-10-02T00:33:14.841Z,1010.88
2018-10-02T00:34:24.546Z,1010.83
2018-10-02T00:35:34.484Z,1010.83
2018-10-02T00:36:44.414Z,1010.92
2018-10-02T00:37:54.347Z,1010.85
2018-10-02T00:39:04.012Z,1010.84
2018-10-02T00:40:13.954Z,1010.84
2018-10-02T00:41:23.906Z,1010.9
2018-10-02T00:42:33.838Z,1010.82
2018-10-02T00:43:43.759Z,1010.85
2018-10-02T00:44:53.178Z,1010.83
2018-10-02T00:46:03.110Z,1010.82
2018-10-02T00:47:13.050Z,1010.79
2018-10-02T00:48:22.745Z,1010.83
2018-10-02T00:49:32.200Z,1010.88
2018-10-02T00:50:42.124Z,1010.86
2018-10-02T00:51:51.541Z,1010.86
2018-10-02T00:53:01.517Z,1010.89
2018-10-02T00:54:10.918Z,1010.98
2018-10-02T00:55:20.852Z,1010.91
2018-10-02T00:56:30.523Z,1010.9
2018-10-02T00:57:40.452Z,1010.89
2018-10-02T00:58:50.378Z,1010.9
2018-10-02T01:00:00.056Z,1010.93
2018-10-02T01:01:09.972Z,1010.88
2018-10-02T01:02:19.871Z,1010.87
2018-10-02T01:03:29.008Z,1010.86
2018-10-02T01:04:38.952Z,1010.9
2018-10-02T01:05:48.628Z,1010.92
2018-10-02T01:06:58.556Z,1010.94
2018-10-02T01:08:08.507Z,1010.9
2018-10-02T01:09:18.449Z,1010.91
2018-10-02T01:10:28.379Z,1010.89
2018-10-02T01:11:38.309Z,1010.9
2018-10-02T01:12:47.971Z,1010.93
2018-10-02T01:13:57.910Z,1010.91
2018-10-02T01:15:07.842Z,1010.86
2018-10-02T01:16:17.592Z,1010.89
2018-10-02T01:17:27.259Z,1010.85
2018-10-02T01:18:36.936Z,1010.78
2018-10-02T01:19:46.871Z,1010.85
2018-10-02T01:20:57.041Z,1010.89
2018-10-02T01:22:06.957Z,1010.87
2018-10-02T01:23:16.379Z,1010.93
2018-10-02T01:24:25.785Z,1010.92
2018-10-02T01:25:35.707Z,1010.86
2018-10-02T01:26:45.637Z,1010.91
2018-10-02T01:27:55.307Z,1011.04
2018-10-02T01:29:05.247Z,1010.92
2018-10-02T01:30:15.173Z,1010.94
2018-10-02T01:31:25.115Z,1010.94
2018-10-02T01:32:35.045Z,1011
2018-10-02T01:33:44.761Z,1010.96
2018-10-02T01:34:54.421Z,1010.85
2018-10-02T01:36:04.418Z,1010.87
2018-10-02T01:37:14.095Z,1010.94
2018-10-02T01:38:23.772Z,1010.88
2018-10-02T01:39:33.694Z,1010.89
2018-10-02T01:40:43.383Z,1010.96
2018-10-02T01:41:53.326Z,1010.88
2018-10-02T01:43:02.990Z,1010.96
2018-10-02T01:44:12.667Z,1010.92
2018-10-02T01:45:22.324Z,1010.9
2018-10-02T01:46:32.257Z,1010.95
2018-10-02T01:47:42.190Z,1010.96
2018-10-02T01:48:52.132Z,1010.94
2018-10-02T01:50:02.067Z,1010.99
2018-10-02T01:51:11.995Z,1010.99
2018-10-02T01:52:21.927Z,1010.92
2018-10-02T01:53:31.843Z,1010.93
2018-10-02T01:54:41.781Z,1010.94
2018-10-02T01:55:51.706Z,1010.93
2018-10-02T01:57:01.116Z,1010.86
2018-10-02T01:58:11.073Z,1010.91
2018-10-02T01:59:21.008Z,1010.89
2018-10-02T02:00:30.705Z,1010.9
2018-10-02T02:01:40.629Z,1010.88
2018-10-02T02:02:50.031Z,1010.91
2018-10-02T02:03:59.968Z,1010.86
2018-10-02T02:05:09.387Z,1010.95
2018-10-02T02:06:19.323Z,1010.94
2018-10-02T02:07:28.988Z,1010.91
2018-10-02T02:08:38.388Z,1010.98
2018-10-02T02:09:48.319Z,1010.98
2018-10-02T02:10:58.243Z,1010.93
2018-10-02T02:12:07.908Z,1010.96
2018-10-02T02:13:17.584Z,1010.91
2018-10-02T02:14:27.505Z,1011.08
2018-10-02T02:15:37.180Z,1010.94
2018-10-02T02:16:47.113Z,1011.02
2018-10-02T02:17:57.040Z,1011.04
2018-10-02T02:19:06.972Z,1010.98
2018-10-02T02:20:16.640Z,1011.02
2018-10-02T02:21:26.307Z,1011.02
2018-10-02T02:22:36.292Z,1010.96
2018-10-02T02:23:46.220Z,1010.99
2018-10-02T02:24:55.981Z,1011.01
2018-10-02T02:26:05.970Z,1011.02
2018-10-02T02:27:15.635Z,1011.03
2018-10-02T02:28:25.558Z,1011.07
2018-10-02T02:29:35.233Z,1011.05
2018-10-02T02:30:44.905Z,1011.02
2018-10-02T02:31:54.863Z,1011.12
2018-10-02T02:33:04.555Z,1011.04
2018-10-02T02:34:14.233Z,1010.99
2018-10-02T02:35:23.895Z,1011.05
2018-10-02T02:36:33.827Z,1011.02
2018-10-02T02:37:43.755Z,1011.04
2018-10-02T02:38:53.699Z,1011.06
2018-10-02T02:40:03.384Z,1011.02
2018-10-02T02:41:13.307Z,1011.11
2018-10-02T02:42:23.235Z,1011.04
2018-10-02T02:43:32.903Z,1011.04
2018-10-02T02:44:42.843Z,1011.07
2018-10-02T02:45:52.772Z,1011.07
2018-10-02T02:47:02.453Z,1011.05
2018-10-02T02:48:12.134Z,1011.1
2018-10-02T02:49:22.095Z,1011.07
2018-10-02T02:50:32.020Z,1011.15
2018-10-02T02:51:41.945Z,1011.08
2018-10-02T02:52:51.616Z,1011.04
2018-10-02T02:54:01.564Z,1011.11
2018-10-02T02:55:11.279Z,1011.07
2018-10-02T02:56:20.954Z,1011.08
2018-10-02T02:57:30.395Z,1011.12
2018-10-02T02:58:40.083Z,1011.1
2018-10-02T02:59:50.020Z,1011.13
2018-10-02T03:00:59.706Z,1011.07
2018-10-02T03:02:09.649Z,1011.04
2018-10-02T03:03:19.331Z,1011.09
2018-10-02T03:04:29.262Z,1011.03
2018-10-02T03:05:38.684Z,1011.04
2018-10-02T03:06:48.360Z,1011.05
2018-10-02T03:07:58.293Z,1011.09
2018-10-02T03:09:07.986Z,1011.03
2018-10-02T03:10:17.924Z,1011.09
2018-10-02T03:11:27.600Z,1011.13
2018-10-02T03:12:37.280Z,1011.06
2018-10-02T03:13:46.983Z,1011.06
2018-10-02T03:14:56.907Z,1011.05
2018-10-02T03:16:06.848Z,1011.09
2018-10-02T03:17:16.523Z,1011.09
2018-10-02T03:18:26.468Z,1011.08
2018-10-02T03:19:36.418Z,1011.11
2018-10-02T03:20:46.353Z,1011.12
2018-10-02T03:21:56.393Z,1011.16
2018-10-02T03:23:06.100Z,1011.16
2018-10-02T03:24:16.053Z,1011.16
2018-10-02T03:25:25.984Z,1011.08
2018-10-02T03:26:35.918Z,1011.08
2018-10-02T03:27:45.867Z,1011.09
2018-10-02T03:28:55.588Z,1011.09
2018-10-02T03:30:05.556Z,1011.1
2018-10-02T03:31:15.249Z,1011.04
2018-10-02T03:32:24.933Z,1011.08
2018-10-02T03:33:34.383Z,1011.04
2018-10-02T03:34:44.068Z,1011.05
2018-10-02T03:35:53.993Z,1011.03
2018-10-02T03:37:03.671Z,1011.08
2018-10-02T03:38:13.613Z,1011.08
2018-10-02T03:39:23.534Z,1011.07
2018-10-02T03:40:33.603Z,1011.09
2018-10-02T03:41:43.008Z,1011.17
2018-10-02T03:42:52.435Z,1011.12
2018-10-02T03:44:02.117Z,1011.14
2018-10-02T03:45:12.047Z,1011.1
2018-10-02T03:46:21.980Z,1011.12
2018-10-02T03:47:31.664Z,1011.11
2018-10-02T03:48:41.405Z,1011.11
2018-10-02T03:49:51.437Z,1011.11
2018-10-02T03:51:01.392Z,1011.1
2018-10-02T03:52:11.328Z,1011.11
2018-10-02T03:53:21.001Z,1011.11
2018-10-02T03:54:30.923Z,1011.08
2018-10-02T03:55:40.618Z,1011.08
2018-10-02T03:56:50.553Z,1011.11
2018-10-02T03:58:00.232Z,1011.08
2018-10-02T03:59:09.941Z,1011.08
2018-10-02T04:00:19.880Z,1011.08
2018-10-02T04:01:29.862Z,1011.1
2018-10-02T04:02:39.537Z,1011.05
2018-10-02T04:03:49.206Z,1011.04
2018-10-02T04:04:58.885Z,1011.02
2018-10-02T04:06:08.812Z,1010.97
2018-10-02T04:07:18.503Z,1011
2018-10-02T04:08:28.169Z,1011.03
2018-10-02T04:09:37.837Z,1010.97
2018-10-02T04:10:47.516Z,1010.95
2018-10-02T04:11:57.456Z,1011
2018-10-02T04:13:07.468Z,1010.98
2018-10-02T04:14:18.049Z,1011.02
2018-10-02T04:15:27.981Z,1011.04
2018-10-02T04:16:37.921Z,1011.06
2018-10-02T04:17:47.360Z,1011.08
2018-10-02T04:18:57.036Z,1011.08
2018-10-02T04:20:06.986Z,1011.1
2018-10-02T04:21:16.406Z,1011.1
2018-10-02T04:22:26.336Z,1011.12
2018-10-02T04:23:36.004Z,1011.13
2018-10-02T04:24:45.682Z,1011.12
2018-10-02T04:25:55.661Z,1011.15
2018-10-02T04:27:05.338Z,1011.17
2018-10-02T04:28:14.768Z,1011.1
2018-10-02T04:29:25.112Z,1011.22
2018-10-02T04:30:35.053Z,1011.13
2018-10-02T04:31:44.735Z,1011.13
2018-10-02T04:32:54.669Z,1011.13
2018-10-02T04:34:04.413Z,1011.1
2018-10-02T04:35:14.203Z,1011.08
2018-10-02T04:36:24.138Z,1011.07
2018-10-02T04:37:33.809Z,1011.05
2018-10-02T04:38:43.492Z,1011.09
2018-10-02T04:39:53.428Z,1011.14
2018-10-02T04:41:03.377Z,1011.16
2018-10-02T04:42:13.071Z,1011.16
2018-10-02T04:43:23.007Z,1011.15
2018-10-02T04:44:32.951Z,1011.22
2018-10-02T04:45:42.878Z,1011.18
2018-10-02T04:46:52.889Z,1011.16
2018-10-02T04:48:02.705Z,1011.2
2018-10-02T04:49:12.142Z,1011.23
2018-10-02T04:50:22.087Z,1011.24
2018-10-02T04:51:32.017Z,1011.26
2018-10-02T04:52:41.701Z,1011.3
2018-10-02T04:53:51.651Z,1011.31
2018-10-02T04:55:01.388Z,1011.29
2018-10-02T04:56:11.583Z,1011.29
2018-10-02T04:57:21.969Z,1011.29
2018-10-02T04:58:31.908Z,1011.29
2018-10-02T04:59:41.847Z,1011.33
2018-10-02T05:00:51.775Z,1011.36
2018-10-02T05:02:01.189Z,1011.34
2018-10-02T05:03:10.933Z,1011.35
2018-10-02T05:04:20.615Z,1011.3
2018-10-02T05:05:30.283Z,1011.29
2018-10-02T05:06:39.983Z,1011.3
2018-10-02T05:07:49.923Z,1011.33
2018-10-02T05:08:59.617Z,1011.33
2018-10-02T05:10:09.581Z,1011.34
2018-10-02T05:11:19.523Z,1011.36
2018-10-02T05:12:29.453Z,1011.32
2018-10-02T05:13:39.407Z,1011.35
2018-10-02T05:14:49.357Z,1011.47
2018-10-02T05:15:59.293Z,1011.5
2018-10-02T05:17:09.271Z,1011.44
2018-10-02T05:18:19.272Z,1011.43
2018-10-02T05:19:29.213Z,1011.47
2018-10-02T05:20:38.945Z,1011.44
2018-10-02T05:21:48.567Z,1011.44
2018-10-02T05:22:58.548Z,1011.49
2018-10-02T05:24:07.982Z,1011.55
2018-10-02T05:25:17.940Z,1011.53
2018-10-02T05:26:27.893Z,1011.53
2018-10-02T05:27:37.876Z,1011.6
2018-10-02T05:28:47.980Z,1011.55
2018-10-02T05:29:57.953Z,1011.51
2018-10-02T05:31:07.664Z,1011.55
2018-10-02T05:32:17.621Z,1011.5
2018-10-02T05:33:27.322Z,1011.47
2018-10-02T05:34:37.449Z,1011.58
2018-10-02T05:35:47.400Z,1011.44
2018-10-02T05:36:57.353Z,1011.43
2018-10-02T05:38:07.298Z,1011.42
2018-10-02T05:39:17.273Z,1011.47
2018-10-02T05:40:27.225Z,1011.5
2018-10-02T05:41:36.925Z,1011.46
2018-10-02T05:42:46.883Z,1011.5
2018-10-02T05:43:57.197Z,1011.37
2018-10-02T05:45:06.639Z,1011.49
2018-10-02T05:46:16.583Z,1011.4
2018-10-02T05:47:25.997Z,1011.41
2018-10-02T05:48:35.963Z,1011.43
2018-10-02T05:49:46.174Z,1011.44
2018-10-02T05:50:55.869Z,1011.46
2018-10-02T05:52:05.564Z,1011.49
2018-10-02T05:53:15.252Z,1011.57
2018-10-02T05:54:25.201Z,1011.53
2018-10-02T05:55:35.173Z,1011.51
2018-10-02T05:56:44.606Z,1011.55
2018-10-02T05:57:54.300Z,1011.56
2018-10-02T05:59:04.265Z,1011.56
2018-10-02T06:00:13.955Z,1011.57
2018-10-02T06:01:23.914Z,1011.64
2018-10-02T06:02:33.615Z,1011.57
2018-10-02T06:03:43.350Z,1011.66
2018-10-02T06:04:53.763Z,1011.67
2018-10-02T06:06:03.711Z,1011.67
2018-10-02T06:07:13.669Z,1011.66
2018-10-02T06:08:23.104Z,1011.66
2018-10-02T06:09:33.095Z,1011.67
2018-10-02T06:10:42.804Z,1011.61
2018-10-02T06:11:52.769Z,1011.72
2018-10-02T06:13:02.556Z,1011.71
2018-10-02T06:14:12.530Z,1011.76
2018-10-02T06:15:22.215Z,1011.78
2018-10-02T06:16:32.172Z,1011.83
2018-10-02T06:17:41.864Z,1011.87
2018-10-02T06:18:51.313Z,1011.95
2018-10-02T06:20:01.254Z,1011.88
2018-10-02T06:21:11.185Z,1011.93
2018-10-02T06:22:21.128Z,1011.92
2018-10-02T06:23:31.074Z,1011.92
2018-10-02T06:24:40.776Z,1011.91
2018-10-02T06:25:51.494Z,1011.9
2018-10-02T06:27:01.179Z,1011.87
2018-10-02T06:28:11.146Z,1011.87
2018-10-02T06:29:20.863Z,1011.93
2018-10-02T06:30:30.371Z,1011.86
2018-10-02T06:31:40.447Z,1011.85
2018-10-02T06:32:50.560Z,1011.93
2018-10-02T06:34:00.577Z,1011.9
2018-10-02T06:35:10.537Z,1011.85
2018-10-02T06:36:20.245Z,1011.82
2018-10-02T06:37:30.195Z,1011.83
2018-10-02T06:38:39.986Z,1011.77
2018-10-02T06:39:50.653Z,1011.8
2018-10-02T06:41:00.625Z,1011.81
2018-10-02T06:42:10.385Z,1011.82
2018-10-02T06:43:20.365Z,1011.8
2018-10-02T06:44:30.548Z,1011.84
2018-10-02T06:45:40.696Z,1011.84
2018-10-02T06:46:50.688Z,1011.88
2018-10-02T06:48:00.396Z,1011.92
2018-10-02T06:49:10.097Z,1011.87
2018-10-02T06:50:20.063Z,1011.85
2018-10-02T06:51:30.076Z,1011.89
2018-10-02T06:52:41.037Z,1011.81
2018-10-02T06:53:51.649Z,1011.76
2018-10-02T06:55:01.622Z,1011.81
2018-10-02T06:56:11.582Z,1011.79
2018-10-02T06:57:21.291Z,1011.75
2018-10-02T06:58:30.986Z,1011.82
2018-10-02T06:59:40.964Z,1011.79
2018-10-02T07:00:50.917Z,1011.78
2018-10-02T07:02:00.842Z,1011.85
2018-10-02T07:03:10.833Z,1011.79
2018-10-02T07:04:20.837Z,1011.77
2018-10-02T07:05:30.583Z,1011.74
2018-10-02T07:06:40.592Z,1011.65
2018-10-02T07:07:50.996Z,1011.69
2018-10-02T07:09:01.035Z,1011.68
2018-10-02T07:10:11.501Z,1011.69
2018-10-02T07:11:21.226Z,1011.69
2018-10-02T07:12:31.201Z,1011.56
2018-10-02T07:13:41.549Z,1011.68
2018-10-02T07:14:51.580Z,1011.66
2018-10-02T07:16:01.930Z,1011.63
2018-10-02T07:17:11.904Z,1011.62
2018-10-02T07:18:21.726Z,1011.6
2018-10-02T07:19:31.683Z,1011.59
2018-10-02T07:20:41.714Z,1011.61
2018-10-02T07:21:51.379Z,1011.53
2018-10-02T07:23:01.094Z,1011.59
2018-10-02T07:24:10.837Z,1011.59
2018-10-02T07:25:20.549Z,1011.58
2018-10-02T07:26:30.359Z,1011.51
2018-10-02T07:27:41.005Z,1011.56
2018-10-02T07:28:51.318Z,1011.54
2018-10-02T07:30:01.311Z,1011.5
2018-10-02T07:31:11.267Z,1011.46
2018-10-02T07:32:21.227Z,1011.5
2018-10-02T07:33:30.673Z,1011.53
2018-10-02T07:34:40.609Z,1011.48
2018-10-02T07:35:50.561Z,1011.47
2018-10-02T07:37:00.556Z,1011.51
2018-10-02T07:38:10.773Z,1011.52
2018-10-02T07:39:20.733Z,1011.51
2018-10-02T07:40:30.671Z,1011.54
2018-10-02T07:41:40.515Z,1011.54
2018-10-02T07:42:50.901Z,1011.52
2018-10-02T07:44:00.849Z,1011.54
2018-10-02T07:45:10.855Z,1011.49
2018-10-02T07:46:20.813Z,1011.55
2018-10-02T07:47:30.548Z,1011.56
2018-10-02T07:48:41.062Z,1011.57
2018-10-02T07:49:51.360Z,1011.58
2018-10-02T07:51:01.608Z,1011.56
2018-10-02T07:52:11.563Z,1011.58
2018-10-02T07:53:21.267Z,1011.64
2018-10-02T07:54:31.646Z,1011.51
2018-10-02T07:55:41.641Z,1011.61
2018-10-02T07:56:51.699Z,1011.62
2018-10-02T07:58:02.151Z,1011.57
2018-10-02T07:59:12.128Z,1011.49
2018-10-02T08:00:22.115Z,1011.61
2018-10-02T08:01:31.816Z,1011.54
2018-10-02T08:02:42.194Z,1011.51
2018-10-02T08:03:52.406Z,1011.54
2018-10-02T08:05:02.441Z,1011.54
2018-10-02T08:06:12.796Z,1011.59
2018-10-02T08:07:22.515Z,1011.55
2018-10-02T08:08:31.992Z,1011.65
2018-10-02T08:09:42.236Z,1011.52
2018-10-02T08:10:52.196Z,1011.53
2018-10-02T08:12:02.313Z,1011.55
2018-10-02T08:13:12.513Z,1011.52
2018-10-02T08:14:22.507Z,1011.57
2018-10-02T08:15:32.415Z,1011.59
2018-10-02T08:16:42.120Z,1011.62
2018-10-02T08:17:51.863Z,1011.58
2018-10-02T08:19:01.973Z,1011.52
2018-10-02T08:20:11.690Z,1011.59
2018-10-02T08:21:21.708Z,1011.42
2018-10-02T08:22:31.417Z,1011.49
2018-10-02T08:23:41.473Z,1011.46
2018-10-02T08:24:51.418Z,1011.57
2018-10-02T08:26:01.133Z,1011.49
2018-10-02T08:27:11.234Z,1011.43
2018-10-02T08:28:21.935Z,1011.4
2018-10-02T08:29:31.721Z,1011.36
2018-10-02T08:30:42.660Z,1011.53
2018-10-02T08:31:52.639Z,1011.36
2018-10-02T08:33:02.439Z,1011.32
2018-10-02T08:34:13.065Z,1011.32
2018-10-02T08:35:22.637Z,1011.31
2018-10-02T08:36:32.803Z,1011.25
2018-10-02T08:37:43.188Z,1011.24
2018-10-02T08:38:53.221Z,1011.18
2018-10-02T08:40:03.240Z,1011.12
2018-10-02T08:41:12.940Z,1011.24
2018-10-02T08:42:22.897Z,1010.96
2018-10-02T08:43:32.701Z,1011.03
2018-10-02T08:44:43.400Z,1011.01
2018-10-02T08:45:53.311Z,1011.02
2018-10-02T08:47:03.279Z,1011.06
2018-10-02T08:48:13.241Z,1010.98
2018-10-02T08:49:22.954Z,1010.98
2018-10-02T08:50:32.744Z,1010.93
2018-10-02T08:51:43.473Z,1010.95
2018-10-02T08:52:53.898Z,1011.04
2018-10-02T08:54:03.954Z,1010.94
2018-10-02T08:55:14.082Z,1010.91
2018-10-02T08:56:23.260Z,1010.78
2018-10-02T08:57:32.988Z,1010.96
2018-10-02T08:58:42.950Z,1010.77
2018-10-02T08:59:52.922Z,1010.88
2018-10-02T09:01:02.668Z,1010.74
2018-10-02T09:02:12.714Z,1010.77
2018-10-02T09:03:22.664Z,1010.81
2018-10-02T09:04:32.633Z,1010.78
2018-10-02T09:05:42.340Z,1010.82
2018-10-02T09:06:52.050Z,1010.72
2018-10-02T09:08:02.130Z,1010.63
2018-10-02T09:09:12.100Z,1010.78
2018-10-02T09:10:22.092Z,1010.86
2018-10-02T09:11:31.802Z,1010.79
2018-10-02T09:12:41.840Z,1010.74
2018-10-02T09:13:51.771Z,1010.82
2018-10-02T09:15:01.742Z,1010.82
2018-10-02T09:16:17.752Z,1010.83
2018-10-02T09:17:28.354Z,1010.76
2018-10-02T09:18:38.379Z,1010.75
2018-10-02T09:19:48.113Z,1010.79
2018-10-02T09:20:58.048Z,1010.73
2018-10-02T09:22:08.136Z,1010.72
2018-10-02T09:23:18.132Z,1010.74
2018-10-02T09:24:28.135Z,1010.73
2018-10-02T09:25:38.415Z,1010.68
2018-10-02T09:26:48.111Z,1010.66
2018-10-02T09:27:57.909Z,1010.63
2018-10-02T09:29:08.596Z,1010.66
2018-10-02T09:30:18.325Z,1010.69
2018-10-02T09:31:29.026Z,1010.73
2018-10-02T09:32:38.994Z,1010.69
2018-10-02T09:33:48.715Z,1010.66
2018-10-02T09:34:59.164Z,1010.56
2018-10-02T09:36:09.162Z,1010.56
2018-10-02T09:37:19.450Z,1010.7
2018-10-02T09:38:29.869Z,1010.42
2018-10-02T09:39:39.962Z,1010.69
2018-10-02T09:40:49.914Z,1010.52
2018-10-02T09:41:59.640Z,1010.68
2018-10-02T09:43:09.993Z,1010.5
2018-10-02T09:44:19.828Z,1010.64
2018-10-02T09:45:29.834Z,1010.58
2018-10-02T09:46:40.028Z,1010.54
2018-10-02T09:47:49.477Z,1010.52
2018-10-02T09:48:59.488Z,1010.65
2018-10-02T09:50:09.926Z,1010.29
2018-10-02T09:51:19.914Z,1010.41
2018-10-02T09:52:29.867Z,1010.4
2018-10-02T09:53:39.867Z,1010.36
2018-10-02T09:54:49.736Z,1010.41
2018-10-02T09:55:59.984Z,1010.39
2018-10-02T09:57:09.978Z,1010.42
2018-10-02T09:58:19.957Z,1010.32
2018-10-02T09:59:30.218Z,1010.34
2018-10-02T10:00:40.491Z,1010.43
2018-10-02T10:01:50.337Z,1010.28
2018-10-02T10:03:00.365Z,1010.29
2018-10-02T10:04:10.549Z,1010.45
2018-10-02T10:05:21.027Z,1010.34
2018-10-02T10:06:30.986Z,1010.39
2018-10-02T10:07:40.724Z,1010.12
2018-10-02T10:08:50.730Z,1010.3
2018-10-02T10:10:00.710Z,1010.15
2018-10-02T10:11:10.695Z,1010.2
2018-10-02T10:12:20.681Z,1010.19
2018-10-02T10:13:30.660Z,1010.22
2018-10-02T10:14:40.382Z,1010.12
2018-10-02T10:15:50.355Z,1010.19
2018-10-02T10:17:00.049Z,1010.1
2018-10-02T10:18:10.682Z,1010.14
2018-10-02T10:19:20.631Z,1010.13
2018-10-02T10:20:30.633Z,1010.09
2018-10-02T10:21:40.374Z,1010.05
2018-10-02T10:22:50.525Z,1010.11
2018-10-02T10:24:00.550Z,1010.07
2018-10-02T10:25:10.301Z,1010.1
2018-10-02T10:26:20.324Z,1009.98
2018-10-02T10:27:30.489Z,1009.93
2018-10-02T10:28:40.587Z,1009.91
2018-10-02T10:29:50.517Z,1009.98
2018-10-02T10:31:00.470Z,1009.82
2018-10-02T10:32:10.441Z,1009.9
2018-10-02T10:33:20.160Z,1010.1
2018-10-02T10:34:30.524Z,1009.96
2018-10-02T10:35:41.066Z,1009.91
2018-10-02T10:36:51.038Z,1009.91
2018-10-02T10:38:00.750Z,1009.95
2018-10-02T10:39:10.486Z,1010.03
2018-10-02T10:40:20.254Z,1009.97
2018-10-02T10:41:30.399Z,1010.13
2018-10-02T10:42:39.591Z,1010.1
2018-10-02T10:43:49.622Z,1009.9
2018-10-02T10:44:59.615Z,1010.03
2018-10-02T10:46:09.337Z,1009.81
2018-10-02T10:47:19.056Z,1009.97
2018-10-02T10:48:29.127Z,1009.75
2018-10-02T10:49:39.093Z,1009.8
2018-10-02T10:50:48.903Z,1009.81
2018-10-02T10:51:58.876Z,1009.75
2018-10-02T10:53:08.862Z,1009.7
2018-10-02T10:54:18.597Z,1009.82
2018-10-02T10:55:28.570Z,1009.66
2018-10-02T10:56:38.324Z,1009.63
2018-10-02T10:57:48.040Z,1009.67
2018-10-02T10:58:58.040Z,1009.57
2018-10-02T11:00:07.956Z,1009.68
2018-10-02T11:01:17.937Z,1009.54
2018-10-02T11:02:27.628Z,1009.67
2018-10-02T11:03:37.593Z,1009.54
2018-10-02T11:04:47.580Z,1009.64
2018-10-02T11:05:57.757Z,1009.62
2018-10-02T11:07:07.459Z,1009.68
2018-10-02T11:08:17.418Z,1009.61
2018-10-02T11:09:27.410Z,1009.54
2018-10-02T11:10:37.673Z,1009.6
2018-10-02T11:11:47.628Z,1009.67
2018-10-02T11:12:57.343Z,1009.33
2018-10-02T11:14:07.366Z,1009.45
2018-10-02T11:15:17.144Z,1009.56
2018-10-02T11:16:27.549Z,1009.45
2018-10-02T11:17:37.499Z,1009.49
2018-10-02T11:18:46.975Z,1009.55
2018-10-02T11:19:57.134Z,1009.65
2018-10-02T11:21:07.229Z,1009.66
2018-10-02T11:22:17.233Z,1009.46
2018-10-02T11:23:26.932Z,1009.48
2018-10-02T11:24:36.868Z,1009.75
2018-10-02T11:25:46.398Z,1009.44
2018-10-02T11:26:56.875Z,1009.59
2018-10-02T11:28:06.833Z,1009.43
2018-10-02T11:29:16.802Z,1009.44
2018-10-02T11:30:26.753Z,1009.47
2018-10-02T11:31:36.457Z,1009.45
2018-10-02T11:32:46.839Z,1009.5
2018-10-02T11:33:56.814Z,1009.68
2018-10-02T11:35:06.791Z,1009.44
2018-10-02T11:36:16.835Z,1009.32
2018-10-02T11:37:26.965Z,1009.45
2018-10-02T11:38:36.837Z,1009.3
2018-10-02T11:39:46.801Z,1009.68
2018-10-02T11:40:56.493Z,1009.32
2018-10-02T11:42:06.186Z,1009.33
2018-10-02T11:43:16.290Z,1009.32
2018-10-02T11:44:27.063Z,1009.27
2018-10-02T11:45:37.662Z,1009.16
2018-10-02T11:46:47.362Z,1009.48
2018-10-02T11:47:57.321Z,1009.28
2018-10-02T11:49:07.082Z,1009.14
2018-10-02T11:50:17.092Z,1009.26
2018-10-02T11:51:26.803Z,1009.09
2018-10-02T11:52:36.775Z,1009.16
2018-10-02T11:53:46.501Z,1008.91
2018-10-02T11:54:56.478Z,1008.88
2018-10-02T11:56:06.498Z,1009.07
2018-10-02T11:57:16.461Z,1009
2018-10-02T11:58:26.321Z,1008.86
2018-10-02T11:59:36.296Z,1008.72
2018-10-02T12:00:46.298Z,1008.81
2018-10-02T12:01:56.710Z,1008.79
2018-10-02T12:03:06.405Z,1008.66
2018-10-02T12:04:16.619Z,1008.65
2018-10-02T12:05:26.334Z,1008.68
2018-10-02T12:06:36.349Z,1008.59
2018-10-02T12:07:46.374Z,1008.58
2018-10-02T12:08:56.390Z,1008.63
2018-10-02T12:10:06.974Z,1008.51
2018-10-02T12:11:16.962Z,1008.45
2018-10-02T12:12:27.129Z,1008.34
2018-10-02T12:13:36.960Z,1008.48
2018-10-02T12:14:48.049Z,1008.41
2018-10-02T12:15:58.766Z,1008.33
2018-10-02T12:17:08.507Z,1008.34
2018-10-02T12:18:17.942Z,1008.34
2018-10-02T12:19:28.047Z,1008.32
2018-10-02T12:20:38.332Z,1008.3
2018-10-02T12:21:48.317Z,1008.28
2018-10-02T12:22:57.799Z,1008.28
2018-10-02T12:24:07.769Z,1008.19
2018-10-02T12:25:17.485Z,1008.18
2018-10-02T12:26:27.459Z,1008.14
2018-10-02T12:27:36.945Z,1008.08
2018-10-02T12:28:46.660Z,1008.05
2018-10-02T12:29:56.378Z,1008.08
2018-10-02T12:31:05.864Z,1008.19
2018-10-02T12:32:15.747Z,1008.15
2018-10-02T12:33:25.206Z,1008.15
2018-10-02T12:34:34.898Z,1008.19
2018-10-02T12:35:44.609Z,1008.17
2018-10-02T12:36:54.588Z,1008.12
2018-10-02T12:38:04.325Z,1008.22
2018-10-02T12:39:13.824Z,1008.07
2018-10-02T12:40:24.011Z,1008.01
2018-10-02T12:41:33.985Z,1008.01
2018-10-02T12:42:43.942Z,1007.8
2018-10-02T12:43:53.406Z,1007.85
2018-10-02T12:45:02.823Z,1007.74
2018-10-02T12:46:12.832Z,1007.76
2018-10-02T12:47:22.752Z,1007.53
2018-10-02T12:48:32.293Z,1007.68
2018-10-02T12:49:42.264Z,1007.63
2018-10-02T12:50:51.696Z,1007.59
2018-10-02T12:52:01.730Z,1007.51
2018-10-02T12:53:12.010Z,1007.59
2018-10-02T12:54:22.074Z,1007.49
2018-10-02T12:55:31.243Z,1007.46
2018-10-02T12:56:41.214Z,1007.54
2018-10-02T12:57:50.926Z,1007.51
2018-10-02T12:59:00.951Z,1007.41
2018-10-02T13:00:11.051Z,1007.42
2018-10-02T13:01:21.020Z,1007.36
2018-10-02T13:02:30.461Z,1007.41
2018-10-02T13:03:39.677Z,1007.35
2018-10-02T13:04:49.636Z,1007.35
2018-10-02T13:05:59.077Z,1007.37
2018-10-02T13:07:09.050Z,1007.28
2018-10-02T13:08:18.759Z,1007.32
2018-10-02T13:09:28.711Z,1007.39
2018-10-02T13:10:38.672Z,1007.43
2018-10-02T13:11:48.360Z,1007.37
2018-10-02T13:12:57.664Z,1007.31
2018-10-02T13:14:07.284Z,1007.16
2018-10-02T13:15:16.474Z,1007.39
2018-10-02T13:16:26.480Z,1007.37
2018-10-02T13:17:36.656Z,1007.14
2018-10-02T13:18:46.389Z,1007.15
2018-10-02T13:19:56.163Z,1007.18
2018-10-02T13:21:06.330Z,1007.08
2018-10-02T13:22:16.297Z,1007.22
2018-10-02T13:23:26.004Z,1007.25
2018-10-02T13:24:35.763Z,1007.36
2018-10-02T13:25:46.009Z,1007.19
2018-10-02T13:26:55.747Z,1007.01
2018-10-02T13:28:05.453Z,1007.08
2018-10-02T13:29:15.468Z,1007.01
2018-10-02T13:30:24.888Z,1007
2018-10-02T13:31:34.335Z,1006.9
2018-10-02T13:32:44.308Z,1007.02
2018-10-02T13:33:53.789Z,1007.03
2018-10-02T13:35:03.777Z,1007.08
2018-10-02T13:36:13.001Z,1007.02
2018-10-02T13:37:22.969Z,1007.14
2018-10-02T13:38:32.688Z,1006.99
2018-10-02T13:39:42.380Z,1007.09
2018-10-02T13:40:52.344Z,1006.94
2018-10-02T13:42:02.289Z,1006.98
2018-10-02T13:43:12.460Z,1007.04
2018-10-02T13:44:22.434Z,1006.98
2018-10-02T13:45:32.247Z,1006.99
2018-10-02T13:46:42.194Z,1006.96
2018-10-02T13:47:52.167Z,1007
2018-10-02T13:49:01.864Z,1006.99
2018-10-02T13:50:11.822Z,1006.93
2018-10-02T13:51:21.787Z,1006.88
2018-10-02T13:52:31.471Z,1006.89
2018-10-02T13:53:41.454Z,1006.94
2018-10-02T13:54:50.879Z,1006.96
2018-10-02T13:56:00.852Z,1006.87
2018-10-02T13:57:10.833Z,1006.92
2018-10-02T13:58:20.800Z,1006.91
2018-10-02T13:59:30.510Z,1006.85
2018-10-02T14:00:40.209Z,1007.03
2018-10-02T14:01:50.162Z,1006.78
2018-10-02T14:03:00.358Z,1006.9
2018-10-02T14:04:10.318Z,1006.71
2018-10-02T14:05:20.027Z,1006.69
2018-10-02T14:06:29.461Z,1006.66
2018-10-02T14:07:39.429Z,1006.67
2018-10-02T14:08:49.390Z,1006.59